createdAt,value
2022-08-11T00:01:26.438Z,63.46
2022-08-11T00:04:03.224Z,64.03
2022-08-11T00:06:36.749Z,63.58
2022-08-11T00:09:13.237Z,64.56
2022-08-11T00:11:46.186Z,64.01
2022-08-11T00:14:36.062Z,64.33
2022-08-11T00:17:12.335Z,64.54
2022-08-11T00:20:12.077Z,64.98
2022-08-11T00:22:33.575Z,64.87
2022-08-11T00:25:10.246Z,65.54
2022-08-11T00:27:39.956Z,65.12
2022-08-11T00:30:12.157Z,65.30
2022-08-11T00:32:43.694Z,65.11
2022-08-11T00:35:54.254Z,65.49
2022-08-11T00:38:07.025Z,65.63
2022-08-11T00:40:51.121Z,66.39
2022-08-11T00:43:43.033Z,66.50
2022-08-11T00:46:22.072Z,66.84
2022-08-11T00:49:08.633Z,66.15
2022-08-11T00:52:21.898Z,66.95
2022-08-11T00:55:59.071Z,66.75
2022-08-11T00:58:37.565Z,66.92
2022-08-11T01:01:21.166Z,66.93
2022-08-11T01:04:55.565Z,67.29
2022-08-11T01:08:11.354Z,67.55
2022-08-11T01:11:03.098Z,68.40
2022-08-11T01:14:33.902Z,68.64
2022-08-11T01:18:18.972Z,68.69
2022-08-11T01:21:27.261Z,68.39
2022-08-11T01:25:06.381Z,68.32
2022-08-11T01:28:17.649Z,68.69
2022-08-11T01:31:50.149Z,68.12
2022-08-11T01:35:12.814Z,68.45
2022-08-11T01:38:06.010Z,68.52
2022-08-11T01:40:58.189Z,68.98
2022-08-11T01:44:38.680Z,69.87
2022-08-11T01:47:54.128Z,69.41
2022-08-11T01:50:21.609Z,69.47
2022-08-11T01:53:00.744Z,70.25
2022-08-11T01:55:57.498Z,71.72
2022-08-11T01:58:44.234Z,71.47
2022-08-11T02:01:50.534Z,72.36
2022-08-11T02:04:39.548Z,72.54
2022-08-11T02:07:22.949Z,73.25
2022-08-11T02:10:50.855Z,73.34
2022-08-11T02:13:54.135Z,73.28
2022-08-11T02:17:06.655Z,73.37
2022-08-11T02:20:14.079Z,73.55
2022-08-11T02:24:06.113Z,73.25
2022-08-11T02:26:20.718Z,73.40
2022-08-11T02:29:24.404Z,73.71
2022-08-11T02:32:28.768Z,74.21
2022-08-11T02:35:29.208Z,73.75
2022-08-11T02:38:17.133Z,72.97
2022-08-11T02:41:31.149Z,73.66
2022-08-11T02:44:07.667Z,74.28
2022-08-11T02:47:15.640Z,74.43
2022-08-11T02:50:08.128Z,74.68
2022-08-11T02:52:59.798Z,73.49
2022-08-11T02:55:48.735Z,73.06
2022-08-11T02:58:37.087Z,73.18
2022-08-11T03:01:17.365Z,73.43
2022-08-11T03:03:52.641Z,73.28
2022-08-11T03:06:45.758Z,73.16
2022-08-11T03:09:43.136Z,73.51
2022-08-11T03:12:44.901Z,72.82
2022-08-11T03:15:48.248Z,73.69
2022-08-11T03:18:38.975Z,74.30
2022-08-11T03:21:09.506Z,74.60
2022-08-11T03:24:04.465Z,75.97
2022-08-11T03:26:55.007Z,75.79
2022-08-11T03:29:51.370Z,76.24
2022-08-11T03:32:31.127Z,75.89
2022-08-11T03:35:03.051Z,76.13
2022-08-11T03:37:56.983Z,76.65
2022-08-11T03:41:00.369Z,76.39
2022-08-11T03:44:08.234Z,75.66
2022-08-11T03:47:14.396Z,76.43
2022-08-11T03:50:24.883Z,76.95
2022-08-11T03:53:20.529Z,76.17
2022-08-11T03:56:14.924Z,76.71
2022-08-11T03:59:45.005Z,76.09
2022-08-11T04:02:45.574Z,75.98
2022-08-11T04:05:37.193Z,76.44
2022-08-11T04:08:42.125Z,76.52
2022-08-11T04:11:51.725Z,77.20
2022-08-11T04:15:18.594Z,77.47
2022-08-11T04:17:45.281Z,77.22
2022-08-11T04:20:51.805Z,77.57
2022-08-11T04:24:13.137Z,77.53
2022-08-11T04:26:56.443Z,77.48
2022-08-11T04:30:03.345Z,77.54
2022-08-11T04:33:08.376Z,76.98
2022-08-11T04:36:10.483Z,76.69
2022-08-11T04:39:24.644Z,77.28
2022-08-11T04:43:06.637Z,77.32
2022-08-11T04:45:50.390Z,77.90
2022-08-11T04:48:35.584Z,77.68
2022-08-11T04:51:43.768Z,77.38
2022-08-11T04:54:53.634Z,77.83
2022-08-11T04:58:06.062Z,78.21
2022-08-11T05:01:37.610Z,79.12
2022-08-11T05:04:53.567Z,78.93
2022-08-11T05:08:19.491Z,78.82
2022-08-11T05:11:18.509Z,79.33
2022-08-11T05:14:07.145Z,80.31
2022-08-11T05:17:16.042Z,79.61
2022-08-11T05:20:06.115Z,79.39
2022-08-11T05:22:53.325Z,79.35
2022-08-11T05:26:43.530Z,78.33
2022-08-11T05:29:19.892Z,77.97
2022-08-11T05:32:19.617Z,77.57
2022-08-11T05:34:56.985Z,77.27
2022-08-11T05:37:29.860Z,77.35
2022-08-11T05:40:25.581Z,77.19
2022-08-11T05:43:20.436Z,77.51
2022-08-11T05:46:23.621Z,76.46
2022-08-11T05:49:10.177Z,77.31
2022-08-11T05:52:05.434Z,76.57
2022-08-11T05:54:59.919Z,75.99
2022-08-11T05:57:49.855Z,76.56
2022-08-11T06:00:20.067Z,77.48
2022-08-11T06:03:07.556Z,77.28
2022-08-11T06:05:43.621Z,77.89
2022-08-11T06:08:13.518Z,77.63
2022-08-11T06:10:43.739Z,77.43
2022-08-11T06:13:16.630Z,77.18
2022-08-11T06:15:49.687Z,77.12
2022-08-11T06:18:16.933Z,77.12
2022-08-11T06:20:55.339Z,76.44
2022-08-11T06:23:25.471Z,76.43
2022-08-11T06:25:56.553Z,76.29
2022-08-11T06:28:37.546Z,76.91
2022-08-11T06:31:15.733Z,77.78
2022-08-11T06:33:51.265Z,77.67
2022-08-11T06:36:35.629Z,77.50
2022-08-11T06:40:11.812Z,76.46
2022-08-11T06:43:07.387Z,74.30
2022-08-11T06:45:42.673Z,72.70
2022-08-11T06:48:18.238Z,72.18
2022-08-11T06:51:14.664Z,70.03
2022-08-11T06:54:03.603Z,69.14
2022-08-11T06:57:29.250Z,68.12
2022-08-11T07:00:05.122Z,64.62
2022-08-11T07:03:01.010Z,62.11
2022-08-11T07:05:56.198Z,60.59
2022-08-11T07:09:45.226Z,59.16
2022-08-11T07:12:53.819Z,58.05
2022-08-11T07:16:12.118Z,57.13
2022-08-11T07:18:52.794Z,55.66
2022-08-11T07:22:02.716Z,56.56
2022-08-11T07:25:17.200Z,53.44
2022-08-11T07:28:06.758Z,53.17
2022-08-11T07:30:40.058Z,53.26
2022-08-11T07:33:08.554Z,53.96
2022-08-11T07:35:49.513Z,50.26
2022-08-11T07:38:25.182Z,49.79
2022-08-11T07:40:52.603Z,49.90
2022-08-11T07:43:19.750Z,49.74
2022-08-11T07:46:05.940Z,50.03
2022-08-11T07:48:53.216Z,47.94
2022-08-11T07:51:39.836Z,47.81
2022-08-11T07:54:17.244Z,46.77
2022-08-11T07:56:55.431Z,46.41
2022-08-11T08:00:03.974Z,46.81
2022-08-11T08:02:50.740Z,45.99
2022-08-11T08:05:37.887Z,45.09
2022-08-11T08:08:26.253Z,44.64
2022-08-11T08:11:14.973Z,43.68
2022-08-11T08:14:02.191Z,43.49
2022-08-11T08:16:49.515Z,43.53
2022-08-11T08:19:19.543Z,43.01
2022-08-11T08:21:47.913Z,42.11
2022-08-11T08:24:15.780Z,42.00
2022-08-11T08:26:59.296Z,42.14
2022-08-11T08:29:53.041Z,41.86
2022-08-11T08:32:21.906Z,41.92
2022-08-11T08:34:53.094Z,41.38
2022-08-11T08:37:45.791Z,40.76
2022-08-11T08:40:13.305Z,41.05
2022-08-11T08:42:55.749Z,40.79
2022-08-11T08:45:24.022Z,41.42
2022-08-11T08:48:20.730Z,40.21
2022-08-11T08:51:16.708Z,40.25
2022-08-11T08:53:53.420Z,39.81
2022-08-11T08:56:31.597Z,39.93
2022-08-11T08:59:01.811Z,39.22
2022-08-11T09:01:43.765Z,39.78
2022-08-11T09:04:13.595Z,39.62
2022-08-11T09:06:44.644Z,39.03
2022-08-11T09:09:17.779Z,39.09
2022-08-11T09:11:51.055Z,39.17
2022-08-11T09:14:19.818Z,38.50
2022-08-11T09:16:48.035Z,39.10
2022-08-11T09:19:18.127Z,37.86
2022-08-11T09:22:09.861Z,38.15
2022-08-11T09:24:56.539Z,39.48
2022-08-11T09:27:24.188Z,38.78
2022-08-11T09:29:52.064Z,38.63
2022-08-11T09:32:23.060Z,38.16
2022-08-11T09:34:52.537Z,38.27
2022-08-11T09:37:54.113Z,37.83
2022-08-11T09:40:32.423Z,37.70
2022-08-11T09:43:22.130Z,37.38
2022-08-11T09:45:52.264Z,37.55
2022-08-11T09:48:21.305Z,37.30
2022-08-11T09:50:53.154Z,37.51
2022-08-11T09:53:36.414Z,37.71
2022-08-11T09:56:28.269Z,37.68
2022-08-11T09:58:55.505Z,37.79
2022-08-11T10:01:30.403Z,38.20
2022-08-11T10:04:43.179Z,37.69
2022-08-11T10:07:11.514Z,37.23
2022-08-11T10:09:59.697Z,37.18
2022-08-11T10:12:33.621Z,37.21
2022-08-11T10:15:27.462Z,37.25
2022-08-11T10:18:17.858Z,37.43
2022-08-11T10:20:50.363Z,37.48
2022-08-11T10:24:01.404Z,37.25
2022-08-11T10:26:47.266Z,37.28
2022-08-11T10:29:36.664Z,36.19
2022-08-11T10:32:31.539Z,36.79
2022-08-11T10:35:02.222Z,36.84
2022-08-11T10:38:08.748Z,36.40
2022-08-11T10:40:23.828Z,36.89
2022-08-11T10:43:06.937Z,36.66
2022-08-11T10:45:55.940Z,36.07
2022-08-11T10:48:25.927Z,36.12
2022-08-11T10:51:12.452Z,36.24
2022-08-11T10:54:11.550Z,36.10
2022-08-11T10:56:59.023Z,34.93
2022-08-11T10:59:28.632Z,35.36
2022-08-11T11:01:55.755Z,34.85
2022-08-11T11:04:50.732Z,34.70
2022-08-11T11:07:24.238Z,35.26
2022-08-11T11:09:57.875Z,34.96
2022-08-11T11:12:47.690Z,34.92
2022-08-11T11:15:37.389Z,34.63
2022-08-11T11:18:09.687Z,34.23
2022-08-11T11:20:59.158Z,34.23
2022-08-11T11:23:41.412Z,33.86
2022-08-11T11:26:29.924Z,33.76
2022-08-11T11:29:29.353Z,34.28
2022-08-11T11:32:33.578Z,35.35
2022-08-11T11:35:18.405Z,34.02
2022-08-11T11:38:04.397Z,33.77
2022-08-11T11:40:33.085Z,33.07
2022-08-11T11:43:01.336Z,33.96
2022-08-11T11:45:28.915Z,33.59
2022-08-11T11:47:59.703Z,32.97
2022-08-11T11:50:35.430Z,33.22
2022-08-11T11:53:09.765Z,32.34
2022-08-11T11:55:37.501Z,32.42
2022-08-11T11:58:24.808Z,33.14
2022-08-11T12:01:11.861Z,31.72
2022-08-11T12:03:40.490Z,31.06
2022-08-11T12:06:09.340Z,31.21
2022-08-11T12:08:37.897Z,31.73
2022-08-11T12:11:28.585Z,32.04
2022-08-11T12:14:01.150Z,31.58
2022-08-11T12:16:33.722Z,31.74
2022-08-11T12:19:08.065Z,31.05
2022-08-11T12:21:36.943Z,31.21
2022-08-11T12:24:23.216Z,31.41
2022-08-11T12:27:16.068Z,31.36
2022-08-11T12:29:52.764Z,30.36
2022-08-11T12:32:27.608Z,30.68
2022-08-11T12:34:57.026Z,29.91
2022-08-11T12:37:41.577Z,29.40
2022-08-11T12:40:42.822Z,29.52
2022-08-11T12:43:41.529Z,29.19
2022-08-11T12:46:14.578Z,28.09
2022-08-11T12:49:04.996Z,28.74
2022-08-11T12:52:11.926Z,28.33
2022-08-11T12:55:00.074Z,29.34
2022-08-11T12:57:54.996Z,28.72
2022-08-11T13:00:41.352Z,28.94
2022-08-11T13:03:30.450Z,29.28
2022-08-11T13:06:01.883Z,28.68
2022-08-11T13:08:35.848Z,29.24
2022-08-11T13:11:22.545Z,29.67
2022-08-11T13:13:57.157Z,29.56
2022-08-11T13:16:55.617Z,29.69
2022-08-11T13:19:23.958Z,29.33
2022-08-11T13:21:52.824Z,29.37
2022-08-11T13:24:21.625Z,29.12
2022-08-11T13:26:50.570Z,28.85
2022-08-11T13:29:26.192Z,28.19
2022-08-11T13:31:56.578Z,27.89
2022-08-11T13:34:25.359Z,28.28
2022-08-11T13:36:57.662Z,27.35
2022-08-11T13:39:30.786Z,26.89
2022-08-11T13:42:01.566Z,26.39
2022-08-11T13:44:33.565Z,25.87
2022-08-11T13:47:04.570Z,25.67
2022-08-11T13:49:35.443Z,25.31
2022-08-11T13:52:04.357Z,25.42
2022-08-11T13:54:35.950Z,24.21
2022-08-11T13:57:08.320Z,23.95
2022-08-11T13:59:45.275Z,24.07
2022-08-11T14:02:29.166Z,23.97
2022-08-11T14:05:11.943Z,23.77
2022-08-11T14:07:46.501Z,24.52
2022-08-11T14:10:16.769Z,24.46
2022-08-11T14:13:13.085Z,23.90
2022-08-11T14:15:45.135Z,23.39
2022-08-11T14:18:29.145Z,23.84
2022-08-11T14:21:19.434Z,23.64
2022-08-11T14:23:55.063Z,23.41
2022-08-11T14:26:29.539Z,22.66
2022-08-11T14:29:09.103Z,22.52
2022-08-11T14:31:46.534Z,21.96
2022-08-11T14:34:14.806Z,22.88
2022-08-11T14:36:48.101Z,21.78
2022-08-11T14:39:18.984Z,20.55
2022-08-11T14:42:19.605Z,20.95
2022-08-11T14:45:08.262Z,20.42
2022-08-11T14:47:38.236Z,19.17
2022-08-11T14:50:10.353Z,18.89
2022-08-11T14:52:45.026Z,18.68
2022-08-11T14:55:32.014Z,18.73
2022-08-11T14:58:00.833Z,18.29
2022-08-11T15:00:28.363Z,18.69
2022-08-11T15:03:11.172Z,18.25
2022-08-11T15:06:02.861Z,18.13
2022-08-11T15:08:52.248Z,18.68
2022-08-11T15:11:43.726Z,19.25
2022-08-11T15:14:12.820Z,18.64
2022-08-11T15:17:03.435Z,19.04
2022-08-11T15:19:40.313Z,19.84
2022-08-11T15:22:28.298Z,20.31
2022-08-11T15:24:57.290Z,20.07
2022-08-11T15:27:44.790Z,19.66
2022-08-11T15:30:33.118Z,20.03
2022-08-11T15:33:24.041Z,20.06
2022-08-11T15:36:11.092Z,19.74
2022-08-11T15:38:45.073Z,21.61
2022-08-11T15:41:36.080Z,21.98
2022-08-11T15:44:58.937Z,22.69
2022-08-11T15:47:19.012Z,23.26
2022-08-11T15:50:10.460Z,24.08
2022-08-11T15:52:48.581Z,23.74
2022-08-11T15:55:17.600Z,24.47
2022-08-11T15:58:06.620Z,24.69
2022-08-11T16:00:58.813Z,25.25
2022-08-11T16:04:07.987Z,25.78
2022-08-11T16:06:47.683Z,26.03
2022-08-11T16:09:22.666Z,26.38
2022-08-11T16:11:50.654Z,25.83
2022-08-11T16:14:38.532Z,25.75
2022-08-11T16:17:08.648Z,26.54
2022-08-11T16:19:38.046Z,26.80
2022-08-11T16:22:09.731Z,27.24
2022-08-11T16:27:03.734Z,27.41
2022-08-11T16:27:37.128Z,27.05
2022-08-11T16:30:06.086Z,26.83
2022-08-11T16:32:34.754Z,26.75
2022-08-11T16:35:28.542Z,27.78
2022-08-11T16:38:15.800Z,27.73
2022-08-11T16:40:44.302Z,27.91
2022-08-11T16:43:34.775Z,27.98
2022-08-11T16:46:23.252Z,28.37
2022-08-11T16:48:55.706Z,28.55
2022-08-11T16:51:23.212Z,28.56
2022-08-11T16:54:04.083Z,28.69
2022-08-11T16:56:52.990Z,29.23
2022-08-11T16:59:38.438Z,29.04
2022-08-11T17:02:09.220Z,29.14
2022-08-11T17:05:12.578Z,29.38
2022-08-11T17:08:02.211Z,29.57
2022-08-11T17:11:04.842Z,29.31
2022-08-11T17:13:46.809Z,29.24
2022-08-11T17:16:20.486Z,29.05
2022-08-11T17:19:13.250Z,28.97
2022-08-11T17:22:10.932Z,29.06
2022-08-11T17:24:43.887Z,29.08
2022-08-11T17:27:16.657Z,29.18
2022-08-11T17:29:55.103Z,29.30
2022-08-11T17:33:30.869Z,29.36
2022-08-11T17:35:59.621Z,29.41
2022-08-11T17:38:27.550Z,30.38
2022-08-11T17:41:23.384Z,29.91
2022-08-11T17:44:11.737Z,30.26
2022-08-11T17:47:03.638Z,30.92
2022-08-11T17:49:37.823Z,30.04
2022-08-11T17:52:25.185Z,30.39
2022-08-11T17:55:13.405Z,30.15
2022-08-11T17:57:59.973Z,30.21
2022-08-11T18:00:26.804Z,30.55
2022-08-11T18:03:14.692Z,30.87
2022-08-11T18:05:45.681Z,30.99
2022-08-11T18:08:32.678Z,31.76
2022-08-11T18:12:06.651Z,32.00
2022-08-11T18:14:27.951Z,31.97
2022-08-11T18:17:14.056Z,33.43
2022-08-11T18:19:59.639Z,33.62
2022-08-11T18:22:58.590Z,34.43
2022-08-11T18:25:49.797Z,34.74
2022-08-11T18:28:43.359Z,34.44
2022-08-11T18:31:33.450Z,35.12
2022-08-11T18:34:24.245Z,35.87
2022-08-11T18:37:29.353Z,36.42
2022-08-11T18:40:29.979Z,36.36
2022-08-11T18:43:21.820Z,36.72
2022-08-11T18:46:16.473Z,36.69
2022-08-11T18:49:10.625Z,37.46
2022-08-11T18:52:00.707Z,37.04
2022-08-11T18:54:51.226Z,37.42
2022-08-11T18:57:49.580Z,37.91
2022-08-11T19:00:41.957Z,38.32
2022-08-11T19:03:30.342Z,38.43
2022-08-11T19:06:39.012Z,38.87
2022-08-11T19:09:29.754Z,40.20
2022-08-11T19:12:17.577Z,41.28
2022-08-11T19:15:04.851Z,42.49
2022-08-11T19:17:53.072Z,43.71
2022-08-11T19:20:45.197Z,44.41
2022-08-11T19:23:34.374Z,45.32
2022-08-11T19:26:22.146Z,45.39
2022-08-11T19:29:09.623Z,45.36
2022-08-11T19:32:16.821Z,45.90
2022-08-11T19:35:02.924Z,46.41
2022-08-11T19:37:49.064Z,47.23
2022-08-11T19:40:35.376Z,48.02
2022-08-11T19:43:25.937Z,48.21
2022-08-11T19:46:17.053Z,48.70
2022-08-11T19:49:06.038Z,49.17
2022-08-11T19:51:54.966Z,49.21
2022-08-11T19:54:52.597Z,49.34
2022-08-11T19:57:40.502Z,49.10
2022-08-11T20:00:35.097Z,49.12
2022-08-11T20:03:24.945Z,49.41
2022-08-11T20:06:11.632Z,49.35
2022-08-11T20:09:01.953Z,50.15
2022-08-11T20:11:51.834Z,50.92
2022-08-11T20:14:41.431Z,51.66
2022-08-11T20:17:29.793Z,52.07
2022-08-11T20:20:19.112Z,52.16
2022-08-11T20:23:07.042Z,52.30
2022-08-11T20:25:55.809Z,52.36
2022-08-11T20:28:49.413Z,52.34
2022-08-11T20:31:35.646Z,52.59
2022-08-11T20:34:22.254Z,52.35
2022-08-11T20:37:09.260Z,52.54
2022-08-11T20:39:56.303Z,52.49
2022-08-11T20:42:43.646Z,53.00
2022-08-11T20:45:30.597Z,53.26
2022-08-11T20:48:17.376Z,53.14
2022-08-11T20:51:06.382Z,53.17
2022-08-11T20:53:57.834Z,53.31
2022-08-11T20:56:46.926Z,53.59
2022-08-11T20:59:43.690Z,53.76
2022-08-11T21:02:36.509Z,53.99
2022-08-11T21:06:08.677Z,54.07
2022-08-11T21:08:29.117Z,54.19
2022-08-11T21:11:14.800Z,54.70
2022-08-11T21:14:13.933Z,56.26
2022-08-11T21:17:27.128Z,57.97
2022-08-11T21:20:18.412Z,57.73
2022-08-11T21:23:23.297Z,57.05
2022-08-11T21:26:27.346Z,56.85
2022-08-11T21:29:15.173Z,57.08
2022-08-11T21:32:01.120Z,56.86
2022-08-11T21:34:47.677Z,56.75
2022-08-11T21:37:35.036Z,57.06
2022-08-11T21:40:24.190Z,56.84
2022-08-11T21:43:11.942Z,56.89
2022-08-11T21:45:58.790Z,57.20
2022-08-11T21:48:46.744Z,57.32
2022-08-11T21:51:32.235Z,57.63
2022-08-11T21:54:19.582Z,57.84
2022-08-11T21:57:06.038Z,57.65
2022-08-11T22:00:18.635Z,58.49
2022-08-11T22:03:06.317Z,58.00
2022-08-11T22:05:53.191Z,57.89
2022-08-11T22:08:38.964Z,58.15
2022-08-11T22:11:31.906Z,58.05
2022-08-11T22:14:18.548Z,58.19
2022-08-11T22:17:03.838Z,58.11
2022-08-11T22:19:50.705Z,59.54
2022-08-11T22:22:52.444Z,59.51
2022-08-11T22:25:51.594Z,60.02
2022-08-11T22:28:40.146Z,61.49
2022-08-11T22:31:27.278Z,61.79
2022-08-11T22:34:13.089Z,61.46
2022-08-11T22:37:00.812Z,61.13
2022-08-11T22:40:01.876Z,61.10
2022-08-11T22:42:51.859Z,60.89
2022-08-11T22:45:39.144Z,60.77
2022-08-11T22:48:26.780Z,60.89
2022-08-11T22:51:14.295Z,62.07
2022-08-11T22:54:00.382Z,62.04
2022-08-11T22:56:49.100Z,62.12
2022-08-11T22:59:36.941Z,62.28
2022-08-11T23:02:25.126Z,62.38
2022-08-11T23:05:11.374Z,62.27
2022-08-11T23:07:57.903Z,61.87
2022-08-11T23:10:44.561Z,61.73
2022-08-11T23:13:30.727Z,62.41
2022-08-11T23:16:17.616Z,62.42
2022-08-11T23:19:04.184Z,62.02
2022-08-11T23:21:50.744Z,62.65
2022-08-11T23:24:37.117Z,62.72
2022-08-11T23:27:25.070Z,62.21
2022-08-11T23:30:15.640Z,62.41
2022-08-11T23:33:07.118Z,62.88
2022-08-11T23:35:56.627Z,63.13
2022-08-11T23:38:43.727Z,62.67
2022-08-11T23:41:33.017Z,62.62
2022-08-11T23:44:24.246Z,62.92
2022-08-11T23:47:14.515Z,63.48
2022-08-11T23:50:01.093Z,63.59
2022-08-11T23:52:47.997Z,63.81
2022-08-11T23:55:33.672Z,64.20
2022-08-11T23:58:19.135Z,64.40
